createdAt,value
2023-08-04T00:00:37.584Z,45.50
2023-08-04T00:03:25.490Z,39.50
2023-08-04T00:05:53.436Z,42.00
2023-08-04T00:08:21.494Z,43.00
2023-08-04T00:10:49.504Z,44.50
2023-08-04T00:13:17.436Z,42.00
2023-08-04T00:15:45.368Z,44.00
2023-08-04T00:20:41.246Z,42.67
2023-08-04T00:23:09.242Z,42.00
2023-08-04T00:25:37.109Z,47.00
2023-08-04T00:28:05.250Z,42.50
2023-08-04T00:30:33.250Z,44.00
2023-08-04T00:33:02.572Z,45.00
2023-08-04T00:35:30.656Z,49.00
2023-08-04T00:37:58.711Z,43.00
2023-08-04T00:40:26.641Z,41.00
2023-08-04T00:42:54.592Z,43.00
2023-08-04T00:45:23.947Z,47.00
2023-08-04T00:50:20.682Z,44.00
2023-08-04T00:55:16.371Z,41.00
2023-08-04T00:57:44.443Z,46.50
2023-08-04T01:00:12.752Z,44.00
2023-08-04T01:02:40.918Z,44.00
2023-08-04T01:05:09.327Z,42.00
2023-08-04T01:07:52.318Z,46.50
2023-08-04T01:10:32.754Z,48.00
2023-08-04T01:13:07.880Z,43.00
2023-08-04T01:15:36.295Z,45.00
2023-08-04T01:18:04.423Z,47.50
2023-08-04T01:20:32.794Z,53.00
2023-08-04T01:23:00.912Z,52.00
2023-08-04T01:25:34.687Z,50.50
2023-08-04T01:28:09.575Z,50.00
2023-08-04T01:30:37.576Z,51.00
2023-08-04T01:33:05.581Z,57.00
2023-08-04T01:35:33.783Z,47.00
2023-08-04T01:38:01.629Z,47.50
2023-08-04T01:40:29.615Z,52.00
2023-08-04T01:42:57.780Z,47.00
2023-08-04T01:45:25.715Z,45.00
2023-08-04T01:47:53.639Z,44.00
2023-08-04T01:50:21.536Z,49.00
2023-08-04T01:52:49.521Z,49.00
2023-08-04T01:55:18.730Z,41.00
2023-08-04T01:57:46.545Z,40.00
2023-08-04T02:00:14.763Z,41.00
2023-08-04T02:02:42.866Z,45.50
2023-08-04T02:05:11.544Z,46.00
2023-08-04T02:07:39.473Z,46.00
2023-08-04T02:10:08.235Z,48.00
2023-08-04T02:12:36.151Z,46.00
2023-08-04T02:15:05.678Z,43.50
2023-08-04T02:17:35.919Z,43.00
2023-08-04T02:20:06.627Z,42.00
2023-08-04T02:22:34.590Z,43.50
2023-08-04T02:25:02.477Z,43.00
2023-08-04T02:27:30.553Z,43.50
2023-08-04T02:29:58.489Z,42.50
2023-08-04T02:32:26.438Z,46.50
2023-08-04T02:34:54.395Z,50.00
2023-08-04T02:42:19.114Z,42.00
2023-08-04T02:44:47.102Z,49.50
2023-08-04T02:47:15.114Z,46.00
2023-08-04T02:49:43.087Z,47.00
2023-08-04T02:52:15.744Z,53.50
2023-08-04T02:54:44.088Z,43.00
2023-08-04T02:57:12.180Z,43.00
2023-08-04T03:02:08.657Z,50.00
2023-08-04T03:07:04.631Z,50.00
2023-08-04T03:12:00.463Z,52.00
2023-08-04T03:14:29.551Z,53.50
2023-08-04T03:16:57.622Z,56.00
2023-08-04T03:19:25.602Z,48.50
2023-08-04T03:21:53.469Z,57.00
2023-08-04T03:24:21.687Z,58.00
2023-08-04T03:26:49.641Z,51.50
2023-08-04T03:31:45.734Z,53.00
2023-08-04T03:34:13.878Z,57.00
2023-08-04T03:36:41.755Z,54.00
2023-08-04T03:39:09.681Z,57.50
2023-08-04T03:44:07.012Z,51.00
2023-08-04T03:46:36.616Z,56.00
2023-08-04T03:51:32.502Z,48.00
2023-08-04T03:54:00.418Z,49.00
2023-08-04T03:56:28.259Z,50.50
2023-08-04T03:58:56.219Z,47.50
2023-08-04T04:01:24.243Z,49.00
2023-08-04T04:03:52.242Z,58.00
2023-08-04T04:06:20.183Z,53.00
2023-08-04T04:08:48.017Z,57.00
2023-08-04T04:11:16.047Z,45.00
2023-08-04T04:13:44.216Z,53.00
2023-08-04T04:16:12.276Z,57.00
2023-08-04T04:18:40.350Z,52.67
2023-08-04T04:23:35.984Z,49.00
2023-08-04T04:26:08.267Z,47.00
2023-08-04T04:28:36.370Z,43.50
2023-08-04T04:31:04.514Z,53.00
2023-08-04T04:36:03.249Z,46.33
2023-08-04T04:38:31.109Z,48.00
2023-08-04T04:40:59.807Z,48.00
2023-08-04T04:43:27.953Z,50.00
2023-08-04T04:45:56.301Z,53.00
2023-08-04T04:48:24.956Z,50.50
2023-08-04T04:53:21.158Z,52.00
2023-08-04T04:55:49.202Z,47.00
2023-08-04T04:58:17.128Z,45.00
2023-08-04T05:00:46.199Z,46.00
2023-08-04T05:03:14.341Z,40.50
2023-08-04T05:05:42.481Z,48.00
2023-08-04T05:08:10.432Z,42.00
2023-08-04T05:10:38.275Z,40.50
2023-08-04T05:13:06.280Z,43.00
2023-08-04T05:15:34.226Z,44.00
2023-08-04T05:18:02.148Z,48.50
2023-08-04T05:30:21.983Z,47.00
2023-08-04T05:32:49.903Z,49.00
2023-08-04T05:35:17.997Z,48.00
2023-08-04T05:37:46.084Z,48.00
2023-08-04T05:40:14.130Z,49.00
2023-08-04T05:42:42.352Z,46.00
2023-08-04T05:45:10.640Z,51.00
2023-08-04T05:50:07.203Z,51.00
2023-08-04T05:52:35.106Z,51.00
2023-08-04T05:55:03.077Z,51.00
2023-08-04T05:57:30.991Z,50.00
2023-08-04T05:59:58.956Z,47.00
2023-08-04T06:02:26.992Z,48.00
2023-08-04T06:04:55.005Z,46.00
2023-08-04T06:07:23.078Z,49.50
2023-08-04T06:09:51.107Z,48.00
2023-08-04T06:12:18.948Z,47.00
2023-08-04T06:14:47.087Z,51.00
2023-08-04T06:17:15.118Z,48.00
2023-08-04T06:19:43.441Z,48.00
2023-08-04T06:22:11.552Z,44.00
2023-08-04T06:24:39.663Z,45.00
2023-08-04T06:27:08.779Z,45.00
2023-08-04T06:29:36.669Z,44.00
2023-08-04T06:32:05.607Z,47.00
2023-08-04T06:37:01.415Z,49.00
2023-08-04T06:39:29.652Z,46.50
2023-08-04T06:41:57.636Z,47.00
2023-08-04T06:44:25.737Z,44.00
2023-08-04T06:46:53.688Z,46.00
2023-08-04T06:49:21.693Z,44.00
2023-08-04T06:51:51.120Z,44.50
2023-08-04T06:54:19.558Z,52.00
2023-08-04T06:56:47.665Z,47.00
2023-08-04T06:59:15.695Z,43.00
2023-08-04T07:01:43.685Z,44.00
2023-08-04T07:04:13.425Z,41.00
2023-08-04T07:06:41.698Z,46.00
2023-08-04T07:09:09.758Z,50.00
2023-08-04T07:11:37.722Z,44.00
2023-08-04T07:14:05.753Z,46.00
2023-08-04T07:16:34.272Z,46.00
2023-08-04T07:19:02.225Z,48.00
2023-08-04T07:21:30.155Z,44.00
2023-08-04T07:23:58.309Z,42.00
2023-08-04T07:26:28.517Z,46.00
2023-08-04T07:31:24.246Z,41.00
2023-08-04T07:33:52.205Z,46.50
2023-08-04T07:36:20.242Z,44.50
2023-08-04T07:41:22.809Z,47.00
2023-08-04T07:43:50.813Z,48.00
2023-08-04T07:46:29.765Z,42.00
2023-08-04T07:48:57.923Z,46.00
2023-08-04T07:51:25.869Z,57.00
2023-08-04T07:53:54.011Z,48.00
2023-08-04T07:56:21.947Z,44.00
2023-08-04T07:58:49.962Z,44.00
2023-08-04T08:01:17.953Z,44.00
2023-08-04T08:03:46.221Z,47.00
2023-08-04T08:06:14.335Z,48.00
2023-08-04T08:08:42.297Z,44.50
2023-08-04T08:11:10.620Z,44.00
2023-08-04T08:13:41.343Z,46.50
2023-08-04T08:16:18.321Z,42.00
2023-08-04T08:18:47.445Z,45.00
2023-08-04T08:21:15.350Z,42.50
2023-08-04T08:23:43.343Z,46.00
2023-08-04T08:26:13.608Z,42.00
2023-08-04T08:28:41.521Z,44.00
2023-08-04T08:31:10.730Z,46.00
2023-08-04T08:33:38.853Z,50.00
2023-08-04T08:36:07.783Z,44.00
2023-08-04T08:38:36.014Z,41.50
2023-08-04T08:41:04.072Z,46.00
2023-08-04T08:43:32.100Z,45.00
2023-08-04T08:46:00.550Z,38.00
2023-08-04T08:48:28.622Z,42.00
2023-08-04T08:51:01.325Z,41.00
2023-08-04T08:53:31.444Z,47.00
2023-08-04T08:56:03.961Z,41.50
2023-08-04T08:58:33.290Z,44.50
2023-08-04T09:01:02.060Z,40.00
2023-08-04T09:03:30.005Z,43.00
2023-08-04T09:05:57.867Z,44.00
2023-08-04T09:08:25.715Z,43.00
2023-08-04T09:10:53.910Z,42.50
2023-08-04T09:13:22.380Z,42.00
2023-08-04T09:15:52.100Z,41.00
2023-08-04T09:18:29.856Z,41.00
2023-08-04T09:21:11.046Z,47.00
2023-08-04T09:23:42.400Z,41.00
2023-08-04T09:26:10.401Z,54.00
2023-08-04T09:31:10.874Z,53.00
2023-08-04T09:33:42.705Z,37.00
2023-08-04T09:36:12.375Z,44.50
2023-08-04T09:38:40.767Z,41.00
2023-08-04T09:41:15.753Z,46.50
2023-08-04T09:43:49.723Z,41.50
2023-08-04T09:46:21.053Z,42.50
2023-08-04T09:48:49.216Z,49.00
2023-08-04T09:51:20.136Z,39.00
2023-08-04T09:53:51.090Z,39.00
2023-08-04T09:56:19.687Z,51.00
2023-08-04T09:58:48.680Z,41.50
2023-08-04T10:01:17.914Z,37.00
2023-08-04T10:03:50.540Z,40.00
2023-08-04T10:06:18.540Z,37.50
2023-08-04T10:08:46.815Z,39.00
2023-08-04T10:11:14.794Z,45.00
2023-08-04T10:13:47.046Z,51.50
2023-08-04T10:16:15.771Z,44.00
2023-08-04T10:18:53.946Z,49.00
2023-08-04T10:23:52.899Z,44.67
2023-08-04T10:26:21.521Z,38.00
2023-08-04T10:29:03.107Z,41.00
2023-08-04T10:34:27.704Z,40.00
2023-08-04T10:37:10.444Z,45.00
2023-08-04T10:42:10.443Z,37.00
2023-08-04T10:44:57.710Z,40.00
2023-08-04T10:50:36.489Z,41.50
2023-08-04T10:53:04.448Z,49.00
2023-08-04T10:55:34.248Z,42.00
2023-08-04T10:58:03.446Z,46.00
2023-08-04T11:00:31.352Z,45.00
2023-08-04T11:02:59.311Z,44.00
2023-08-04T11:05:27.440Z,45.00
2023-08-04T11:07:55.476Z,42.00
2023-08-04T11:10:24.903Z,37.00
2023-08-04T11:12:53.812Z,40.50
2023-08-04T11:15:21.816Z,44.50
2023-08-04T11:17:50.044Z,43.00
2023-08-04T11:20:31.883Z,43.00
2023-08-04T11:23:02.270Z,44.00
2023-08-04T11:25:33.652Z,42.00
2023-08-04T11:28:02.974Z,43.00
2023-08-04T11:30:32.259Z,38.50
2023-08-04T11:33:00.203Z,40.00
2023-08-04T11:35:30.114Z,41.00
2023-08-04T11:37:58.505Z,45.00
2023-08-04T11:42:54.433Z,46.00
2023-08-04T11:45:22.718Z,44.00
2023-08-04T11:47:50.931Z,43.00
2023-08-04T11:50:19.101Z,46.00
2023-08-04T11:52:47.662Z,45.00
2023-08-04T11:55:15.689Z,42.50
2023-08-04T11:57:53.523Z,35.33
2023-08-04T12:05:31.965Z,43.00
2023-08-04T12:08:00.728Z,39.00
2023-08-04T12:10:29.831Z,42.00
2023-08-04T12:12:57.779Z,44.00
2023-08-04T12:15:26.015Z,36.00
2023-08-04T12:17:54.075Z,45.00
2023-08-04T12:22:49.968Z,38.00
2023-08-04T12:25:17.920Z,41.00
2023-08-04T12:27:45.911Z,43.00
2023-08-04T12:30:14.991Z,39.00
2023-08-04T12:32:42.972Z,47.00
2023-08-04T12:35:10.995Z,46.00
2023-08-04T12:37:39.003Z,44.00
2023-08-04T12:40:07.462Z,40.00
2023-08-04T12:42:36.334Z,38.00
2023-08-04T12:45:04.686Z,34.00
2023-08-04T12:47:32.774Z,34.00
2023-08-04T12:50:00.777Z,35.00
2023-08-04T12:52:28.871Z,42.00
2023-08-04T12:57:24.588Z,40.00
2023-08-04T12:59:52.525Z,36.00
2023-08-04T13:02:20.560Z,37.00
2023-08-04T13:04:49.017Z,44.00
2023-08-04T13:07:17.061Z,43.00
2023-08-04T13:09:44.923Z,38.00
2023-08-04T13:12:12.982Z,44.00
2023-08-04T13:17:08.824Z,40.00
2023-08-04T13:19:36.766Z,41.00
2023-08-04T13:22:05.168Z,38.00
2023-08-04T13:24:33.151Z,41.00
2023-08-04T13:27:01.162Z,44.00
2023-08-04T13:29:29.105Z,43.00
2023-08-04T13:31:57.012Z,40.00
2023-08-04T13:34:25.059Z,45.00
2023-08-04T13:36:52.990Z,40.00
2023-08-04T13:39:21.073Z,42.50
2023-08-04T13:41:49.366Z,42.50
2023-08-04T13:44:17.705Z,63.00
2023-08-04T13:46:45.666Z,43.50
2023-08-04T13:49:13.746Z,47.00
2023-08-04T13:51:41.748Z,38.00
2023-08-04T13:54:09.656Z,47.00
2023-08-04T13:56:40.481Z,39.00
2023-08-04T13:59:09.043Z,44.00
2023-08-04T14:01:37.187Z,44.00
2023-08-04T14:04:05.538Z,43.00
2023-08-04T14:06:35.639Z,45.00
2023-08-04T14:09:03.690Z,40.00
2023-08-04T14:11:31.749Z,48.50
2023-08-04T14:13:59.744Z,50.00
2023-08-04T14:16:27.704Z,51.50
2023-08-04T14:18:55.615Z,37.50
2023-08-04T14:21:23.787Z,47.50
2023-08-04T14:23:53.785Z,51.00
2023-08-04T14:28:49.722Z,45.00
2023-08-04T14:31:17.903Z,46.50
2023-08-04T14:33:46.063Z,41.00
2023-08-04T14:36:13.976Z,43.00
2023-08-04T14:38:41.876Z,46.00
2023-08-04T14:41:09.774Z,48.00
2023-08-04T14:43:39.658Z,48.50
2023-08-04T14:51:13.514Z,47.00
2023-08-04T14:53:41.485Z,41.00
2023-08-04T14:56:09.532Z,46.50
2023-08-04T15:01:09.125Z,47.00
2023-08-04T15:08:44.298Z,38.00
2023-08-04T15:11:12.662Z,46.00
2023-08-04T15:13:40.771Z,45.00
2023-08-04T15:16:09.351Z,57.00
2023-08-04T15:18:37.550Z,45.50
2023-08-04T15:23:34.101Z,46.00
2023-08-04T15:26:02.128Z,40.00
2023-08-04T15:28:30.084Z,42.00
2023-08-04T15:31:04.209Z,44.00
2023-08-04T15:33:33.272Z,44.00
2023-08-04T15:36:02.376Z,47.00
2023-08-04T15:38:30.370Z,45.00
2023-08-04T15:41:01.244Z,41.00
2023-08-04T15:43:29.098Z,44.00
2023-08-04T15:45:57.141Z,44.00
2023-08-04T15:48:25.263Z,38.00
2023-08-04T15:50:53.372Z,45.00
2023-08-04T15:53:21.283Z,42.00
2023-08-04T15:55:49.246Z,40.50
2023-08-04T15:58:17.079Z,41.00
2023-08-04T16:00:45.196Z,31.50
2023-08-04T16:03:13.021Z,41.00
2023-08-04T16:05:41.552Z,46.00
2023-08-04T16:08:09.478Z,44.00
2023-08-04T16:10:37.532Z,41.00
2023-08-04T16:13:05.580Z,46.50
2023-08-04T16:15:33.594Z,42.00
2023-08-04T16:18:01.638Z,41.00
2023-08-04T16:20:29.841Z,40.00
2023-08-04T16:23:00.140Z,44.00
2023-08-04T16:25:29.438Z,43.50
2023-08-04T16:27:57.406Z,44.00
2023-08-04T16:30:25.301Z,41.50
2023-08-04T16:32:53.384Z,44.50
2023-08-04T16:35:22.641Z,38.50
2023-08-04T16:37:50.562Z,43.00
2023-08-04T16:40:18.488Z,46.00
2023-08-04T16:42:46.769Z,43.00
2023-08-04T16:45:14.804Z,48.00
2023-08-04T16:47:42.773Z,42.00
2023-08-04T16:50:10.760Z,41.00
2023-08-04T16:52:38.623Z,42.00
2023-08-04T16:55:06.828Z,39.00
2023-08-04T16:57:34.681Z,36.00
2023-08-04T17:00:02.661Z,46.00
2023-08-04T17:02:30.714Z,46.00
2023-08-04T17:04:59.241Z,45.00
2023-08-04T17:07:27.340Z,44.00
2023-08-04T17:09:57.882Z,38.50
2023-08-04T17:12:25.905Z,47.00
2023-08-04T17:14:54.132Z,47.00
2023-08-04T17:17:22.198Z,45.00
2023-08-04T17:19:50.129Z,44.50
2023-08-04T17:22:18.114Z,40.50
2023-08-04T17:24:45.994Z,45.00
2023-08-04T17:27:13.916Z,54.00
2023-08-04T17:29:41.899Z,51.00
2023-08-04T17:32:10.554Z,49.50
2023-08-04T17:34:39.640Z,43.00
2023-08-04T17:37:07.611Z,43.00
2023-08-04T17:39:35.508Z,41.00
2023-08-04T17:42:04.056Z,46.00
2023-08-04T17:44:32.258Z,44.00
2023-08-04T17:47:00.200Z,46.00
2023-08-04T17:49:28.056Z,47.00
2023-08-04T17:54:23.767Z,42.00
2023-08-04T17:56:51.966Z,45.00
2023-08-04T17:59:19.973Z,43.00
2023-08-04T18:01:47.861Z,44.00
2023-08-04T18:04:16.640Z,48.00
2023-08-04T18:06:44.662Z,46.00
2023-08-04T18:09:12.696Z,47.00
2023-08-04T18:11:40.653Z,48.50
2023-08-04T18:14:08.549Z,40.50
2023-08-04T18:16:36.514Z,45.50
2023-08-04T18:19:04.524Z,45.00
2023-08-04T18:21:32.458Z,53.00
2023-08-04T18:24:00.654Z,47.00
2023-08-04T18:26:28.495Z,44.00
2023-08-04T18:28:56.686Z,42.00
2023-08-04T18:31:24.679Z,47.00
2023-08-04T18:33:52.658Z,44.00
2023-08-04T18:36:22.723Z,45.00
2023-08-04T18:38:50.746Z,45.00
2023-08-04T18:43:46.498Z,49.00
2023-08-04T18:46:14.728Z,47.00
2023-08-04T18:48:42.690Z,45.00
2023-08-04T18:51:10.637Z,55.00
2023-08-04T18:53:40.414Z,44.00
2023-08-04T18:58:37.106Z,44.00
2023-08-04T19:01:05.277Z,43.00
2023-08-04T19:03:35.724Z,47.50
2023-08-04T19:06:06.004Z,51.00
2023-08-04T19:08:34.201Z,48.00
2023-08-04T19:11:02.117Z,46.00
2023-08-04T19:13:30.381Z,48.00
2023-08-04T19:15:58.805Z,42.50
2023-08-04T19:18:26.934Z,47.00
2023-08-04T19:20:54.968Z,50.00
2023-08-04T19:23:23.029Z,46.00
2023-08-04T19:25:50.971Z,41.00
2023-08-04T19:28:18.813Z,47.00
2023-08-04T19:30:47.246Z,44.50
2023-08-04T19:33:15.324Z,45.00
2023-08-04T19:35:43.226Z,48.00
2023-08-04T19:38:11.213Z,41.00
2023-08-04T19:40:39.265Z,46.50
2023-08-04T19:43:08.582Z,47.00
2023-08-04T19:45:36.691Z,45.50
2023-08-04T19:50:32.661Z,39.00
2023-08-04T19:53:00.673Z,41.50
2023-08-04T19:55:42.027Z,37.00
2023-08-04T19:58:12.279Z,39.00
2023-08-04T20:00:42.919Z,45.00
2023-08-04T20:03:11.042Z,47.67
2023-08-04T20:05:39.764Z,38.00
2023-08-04T20:08:07.686Z,45.00
2023-08-04T20:10:36.322Z,40.00
2023-08-04T20:13:04.996Z,46.00
2023-08-04T20:15:33.857Z,42.50
2023-08-04T20:18:02.763Z,48.00
2023-08-04T20:20:31.948Z,42.00
2023-08-04T20:25:28.249Z,44.50
2023-08-04T20:27:56.659Z,42.00
2023-08-04T20:30:27.734Z,44.00
2023-08-04T20:32:56.266Z,41.00
2023-08-04T20:35:24.320Z,47.00
2023-08-04T20:37:53.240Z,41.50
2023-08-04T20:42:49.210Z,45.00
2023-08-04T20:45:18.501Z,43.00
2023-08-04T20:47:47.256Z,41.00
2023-08-04T20:50:15.992Z,39.00
2023-08-04T20:52:44.089Z,40.00
2023-08-04T20:55:12.357Z,42.00
2023-08-04T20:57:40.510Z,44.00
2023-08-04T21:00:10.251Z,43.50
2023-08-04T21:02:39.187Z,43.00
2023-08-04T21:05:08.094Z,44.00
2023-08-04T21:07:36.998Z,44.00
2023-08-04T21:10:05.480Z,39.00
2023-08-04T21:12:34.265Z,43.00
2023-08-04T21:15:04.656Z,44.50
2023-08-04T21:17:33.328Z,41.50
2023-08-04T21:20:04.397Z,44.00
2023-08-04T21:22:32.973Z,43.00
2023-08-04T21:25:01.296Z,46.00
2023-08-04T21:29:57.999Z,42.00
2023-08-04T21:32:26.494Z,44.00
2023-08-04T21:34:55.522Z,39.00
2023-08-04T21:37:24.320Z,46.00
2023-08-04T21:39:53.767Z,34.00
2023-08-04T21:42:22.738Z,41.00
2023-08-04T21:44:54.130Z,39.00
2023-08-04T21:47:22.180Z,42.00
2023-08-04T21:49:50.763Z,36.00
2023-08-04T21:52:19.812Z,40.00
2023-08-04T21:57:17.311Z,37.00
2023-08-04T21:59:45.723Z,44.50
2023-08-04T22:02:15.127Z,42.50
2023-08-04T22:04:44.303Z,40.50
2023-08-04T22:07:12.496Z,39.00
2023-08-04T22:09:40.491Z,38.00
2023-08-04T22:12:09.722Z,36.00
2023-08-04T22:14:37.571Z,36.00
2023-08-04T22:19:33.574Z,33.00
2023-08-04T22:22:01.456Z,36.00
2023-08-04T22:24:29.336Z,38.00
2023-08-04T22:26:57.209Z,40.50
2023-08-04T22:29:25.123Z,36.00
2023-08-04T22:31:52.965Z,40.00
2023-08-04T22:34:20.835Z,47.00
2023-08-04T22:36:49.217Z,39.00
2023-08-04T22:39:17.673Z,35.00
2023-08-04T22:41:45.606Z,33.00
2023-08-04T22:44:13.559Z,36.50
2023-08-04T22:46:41.490Z,30.00
2023-08-04T22:49:09.435Z,29.00
2023-08-04T22:51:37.402Z,33.00
2023-08-04T22:54:07.233Z,38.00
2023-08-04T22:56:38.657Z,33.00
2023-08-04T23:01:35.443Z,40.00
2023-08-04T23:04:04.974Z,34.00
2023-08-04T23:06:33.163Z,30.00
2023-08-04T23:09:04.925Z,30.00
2023-08-04T23:11:32.893Z,30.00
2023-08-04T23:14:00.795Z,33.00
2023-08-04T23:16:29.062Z,31.00
2023-08-04T23:18:56.913Z,31.50
2023-08-04T23:21:24.903Z,30.00
2023-08-04T23:23:52.784Z,39.00
2023-08-04T23:26:20.846Z,30.00
2023-08-04T23:28:48.774Z,34.00
2023-08-04T23:31:17.027Z,32.00
2023-08-04T23:33:44.975Z,33.00
2023-08-04T23:36:12.875Z,26.50
2023-08-04T23:38:40.859Z,35.00
2023-08-04T23:41:08.769Z,32.00
2023-08-04T23:43:36.596Z,29.00
2023-08-04T23:46:04.519Z,31.00
2023-08-04T23:48:32.650Z,30.00
2023-08-04T23:51:00.664Z,26.33
2023-08-04T23:53:28.443Z,29.50
2023-08-04T23:55:56.461Z,32.00
2023-08-04T23:58:24.404Z,28.50
